ソルトレイクシティ の空港の天気 - METARとTAF

ソルト・レーク・シティ国際空港 ( KSLC / SLC ) - アメリカ ユタ州ソルトレイクシティ
飛行場実況気象(Metar)
観測時間01/19 07:54 MST (01/19 14:54 UTC)
風向・風速東南東 4m/s
視程10km以上
天気現象
全天を覆う雲 雲底高度 1680m
気温0.6℃
湿度69%
気圧1031.6hPa
METARKSLC 191454Z 11007KT 10SM OVC055 01/M04 A3042 RMK AO2 SLP316 VIRGA T00061044 53014
過去の天気等 Google飛行場航空写真 Wunderground天気予報

過去48時間のMETAR

飛行場予報(TAF)
発表時間: 1/19 07:31 MST (1/19 14:31 UTC)
予報対象時間: 19日8時 MST ~ 20日11時 MST
風向・風速南南東 5m/s
視程10km以上
天気現象周辺でしゅう雨
全天の8割程度の雲 雲底高度 1220m
全天を覆う雲 雲底高度 1830m
19日14時 MST から
風向・風速南 4m/s
視程10km以上
全天の4割程度の雲 雲底高度 1220m
全天の8割程度の雲 雲底高度 2130m
20日2時 MST から
風向・風速南東 3m/s
視程10km以上
全天の4割程度の雲 雲底高度 2130m
KSLC 191431Z 1915/2018 15010KT P6SM VCSH BKN040 OVC060
FM192100 17007KT P6SM SCT040 BKN070
FM200900 14006KT P6SM SCT070